sensor_id;sensor_type;location;lat;lon;timestamp;temperature;humidity
14031;DHT22;7090;49.436;8.490;2023-12-28T00:01:24;6.40;1.00
14031;DHT22;7090;49.436;8.490;2023-12-28T00:03:50;6.70;1.00
14031;DHT22;7090;49.436;8.490;2023-12-28T00:06:16;6.90;1.00
14031;DHT22;7090;49.436;8.490;2023-12-28T00:08:42;7.00;1.00
14031;DHT22;7090;49.436;8.490;2023-12-28T00:11:08;7.10;1.00
14031;DHT22;7090;49.436;8.490;2023-12-28T00:13:34;7.30;1.00
14031;DHT22;7090;49.436;8.490;2023-12-28T00:15:59;7.30;1.00
14031;DHT22;7090;49.436;8.490;2023-12-28T00:18:25;7.30;1.00
14031;DHT22;7090;49.436;8.490;2023-12-28T00:20:50;7.40;1.00
14031;DHT22;7090;49.436;8.490;2023-12-28T00:23:16;7.40;1.00
14031;DHT22;7090;49.436;8.490;2023-12-28T00:25:42;7.40;1.00
14031;DHT22;7090;49.436;8.490;2023-12-28T00:28:07;7.40;1.00
14031;DHT22;7090;49.436;8.490;2023-12-28T00:30:33;7.40;1.00
14031;DHT22;7090;49.436;8.490;2023-12-28T00:32:59;7.50;99.90
14031;DHT22;7090;49.436;8.490;2023-12-28T00:35:24;7.50;99.90
14031;DHT22;7090;49.436;8.490;2023-12-28T00:37:50;7.60;99.90
14031;DHT22;7090;49.436;8.490;2023-12-28T00:40:15;7.80;99.90
14031;DHT22;7090;49.436;8.490;2023-12-28T00:42:41;7.80;99.90
14031;DHT22;7090;49.436;8.490;2023-12-28T00:45:08;7.80;99.90
14031;DHT22;7090;49.436;8.490;2023-12-28T00:47:34;8.00;99.90
14031;DHT22;7090;49.436;8.490;2023-12-28T00:49:59;8.10;99.90
14031;DHT22;7090;49.436;8.490;2023-12-28T00:52:25;8.10;1.00
14031;DHT22;7090;49.436;8.490;2023-12-28T00:54:53;8.10;1.00
14031;DHT22;7090;49.436;8.490;2023-12-28T00:57:19;8.10;1.00
14031;DHT22;7090;49.436;8.490;2023-12-28T00:59:44;8.20;99.90
14031;DHT22;7090;49.436;8.490;2023-12-28T01:02:10;8.20;1.00
14031;DHT22;7090;49.436;8.490;2023-12-28T01:04:35;8.20;1.00
14031;DHT22;7090;49.436;8.490;2023-12-28T01:07:01;8.30;1.00
14031;DHT22;7090;49.436;8.490;2023-12-28T01:09:30;8.30;1.00
14031;DHT22;7090;49.436;8.490;2023-12-28T01:11:57;8.30;1.00
14031;DHT22;7090;49.436;8.490;2023-12-28T01:14:23;8.40;1.00
14031;DHT22;7090;49.436;8.490;2023-12-28T01:16:49;8.50;1.00
14031;DHT22;7090;49.436;8.490;2023-12-28T01:19:14;8.70;1.00
14031;DHT22;7090;49.436;8.490;2023-12-28T01:21:40;8.50;1.00
14031;DHT22;7090;49.436;8.490;2023-12-28T01:24:05;8.60;1.00
14031;DHT22;7090;49.436;8.490;2023-12-28T01:26:31;8.60;1.00
14031;DHT22;7090;49.436;8.490;2023-12-28T01:28:56;8.70;1.00
14031;DHT22;7090;49.436;8.490;2023-12-28T01:31:22;8.70;1.00
14031;DHT22;7090;49.436;8.490;2023-12-28T01:33:48;8.80;1.00
14031;DHT22;7090;49.436;8.490;2023-12-28T01:36:20;8.90;1.00
14031;DHT22;7090;49.436;8.490;2023-12-28T01:38:46;9.00;1.00
14031;DHT22;7090;49.436;8.490;2023-12-28T01:41:12;9.20;1.00
14031;DHT22;7090;49.436;8.490;2023-12-28T01:43:39;9.30;1.00
14031;DHT22;7090;49.436;8.490;2023-12-28T01:46:05;9.50;1.00
14031;DHT22;7090;49.436;8.490;2023-12-28T01:48:32;9.60;1.00
14031;DHT22;7090;49.436;8.490;2023-12-28T01:50:58;9.90;1.00
14031;DHT22;7090;49.436;8.490;2023-12-28T01:53:24;10.00;1.00
14031;DHT22;7090;49.436;8.490;2023-12-28T01:55:50;9.90;1.00
14031;DHT22;7090;49.436;8.490;2023-12-28T01:58:16;9.90;1.00
14031;DHT22;7090;49.436;8.490;2023-12-28T02:00:43;10.00;1.00
14031;DHT22;7090;49.436;8.490;2023-12-28T02:03:10;10.10;1.00
14031;DHT22;7090;49.436;8.490;2023-12-28T02:05:36;10.10;1.00
14031;DHT22;7090;49.436;8.490;2023-12-28T02:08:03;10.20;1.00
14031;DHT22;7090;49.436;8.490;2023-12-28T02:10:29;10.30;1.00
14031;DHT22;7090;49.436;8.490;2023-12-28T02:12:55;10.30;1.00
14031;DHT22;7090;49.436;8.490;2023-12-28T02:15:21;10.30;1.00
14031;DHT22;7090;49.436;8.490;2023-12-28T02:17:55;10.30;1.00
14031;DHT22;7090;49.436;8.490;2023-12-28T02:20:24;10.40;1.00
14031;DHT22;7090;49.436;8.490;2023-12-28T02:22:50;10.50;1.00
14031;DHT22;7090;49.436;8.490;2023-12-28T02:25:17;10.50;1.00
14031;DHT22;7090;49.436;8.490;2023-12-28T02:27:45;10.60;1.00
14031;DHT22;7090;49.436;8.490;2023-12-28T02:30:15;10.60;1.00
14031;DHT22;7090;49.436;8.490;2023-12-28T02:33:01;10.60;1.00
14031;DHT22;7090;49.436;8.490;2023-12-28T02:38:14;10.80;1.00
14031;DHT22;7090;49.436;8.490;2023-12-28T02:40:42;10.80;1.00
14031;DHT22;7090;49.436;8.490;2023-12-28T02:43:10;10.80;1.00
14031;DHT22;7090;49.436;8.490;2023-12-28T02:45:36;10.80;1.00
14031;DHT22;7090;49.436;8.490;2023-12-28T02:48:03;10.90;1.00
14031;DHT22;7090;49.436;8.490;2023-12-28T02:50:29;10.80;1.00
14031;DHT22;7090;49.436;8.490;2023-12-28T02:52:58;10.80;1.00
14031;DHT22;7090;49.436;8.490;2023-12-28T02:55:24;10.80;1.00
14031;DHT22;7090;49.436;8.490;2023-12-28T02:57:51;10.80;1.00
14031;DHT22;7090;49.436;8.490;2023-12-28T03:00:16;10.80;1.00
14031;DHT22;7090;49.436;8.490;2023-12-28T03:02:42;10.80;1.00
14031;DHT22;7090;49.436;8.490;2023-12-28T03:05:08;10.80;1.00
14031;DHT22;7090;49.436;8.490;2023-12-28T03:07:34;10.70;1.00
14031;DHT22;7090;49.436;8.490;2023-12-28T03:10:00;10.70;1.00
14031;DHT22;7090;49.436;8.490;2023-12-28T03:12:26;10.70;1.00
14031;DHT22;7090;49.436;8.490;2023-12-28T03:14:52;10.70;1.00
14031;DHT22;7090;49.436;8.490;2023-12-28T03:17:17;10.70;1.00
14031;DHT22;7090;49.436;8.490;2023-12-28T03:19:43;10.70;1.00
14031;DHT22;7090;49.436;8.490;2023-12-28T03:22:08;10.80;1.00
14031;DHT22;7090;49.436;8.490;2023-12-28T03:24:36;10.70;1.00
14031;DHT22;7090;49.436;8.490;2023-12-28T03:27:01;10.70;1.00
14031;DHT22;7090;49.436;8.490;2023-12-28T03:29:27;10.70;1.00
14031;DHT22;7090;49.436;8.490;2023-12-28T03:31:53;10.70;1.00
14031;DHT22;7090;49.436;8.490;2023-12-28T03:34:18;10.80;1.00
14031;DHT22;7090;49.436;8.490;2023-12-28T03:36:44;10.90;1.00
14031;DHT22;7090;49.436;8.490;2023-12-28T03:39:09;10.90;1.00
14031;DHT22;7090;49.436;8.490;2023-12-28T03:41:35;10.90;1.00
14031;DHT22;7090;49.436;8.490;2023-12-28T03:44:00;10.90;1.00
14031;DHT22;7090;49.436;8.490;2023-12-28T03:46:26;10.80;1.00
14031;DHT22;7090;49.436;8.490;2023-12-28T03:48:53;10.80;1.00
14031;DHT22;7090;49.436;8.490;2023-12-28T03:51:18;10.70;1.00
14031;DHT22;7090;49.436;8.490;2023-12-28T03:53:44;10.70;1.00
14031;DHT22;7090;49.436;8.490;2023-12-28T03:56:28;10.60;1.00
14031;DHT22;7090;49.436;8.490;2023-12-28T03:58:54;10.50;1.00
14031;DHT22;7090;49.436;8.490;2023-12-28T04:01:21;10.50;1.00
14031;DHT22;7090;49.436;8.490;2023-12-28T04:03:48;10.60;1.00
14031;DHT22;7090;49.436;8.490;2023-12-28T04:06:14;10.60;1.00
14031;DHT22;7090;49.436;8.490;2023-12-28T04:08:41;10.60;1.00
14031;DHT22;7090;49.436;8.490;2023-12-28T04:11:07;10.70;1.00
14031;DHT22;7090;49.436;8.490;2023-12-28T04:13:33;10.70;1.00
14031;DHT22;7090;49.436;8.490;2023-12-28T04:15:59;10.60;1.00
14031;DHT22;7090;49.436;8.490;2023-12-28T04:18:24;10.60;1.00
14031;DHT22;7090;49.436;8.490;2023-12-28T04:20:50;10.60;1.00
14031;DHT22;7090;49.436;8.490;2023-12-28T04:23:15;10.50;1.00
14031;DHT22;7090;49.436;8.490;2023-12-28T04:25:41;10.50;1.00
14031;DHT22;7090;49.436;8.490;2023-12-28T04:28:07;10.50;1.00
14031;DHT22;7090;49.436;8.490;2023-12-28T04:30:33;10.50;1.00
14031;DHT22;7090;49.436;8.490;2023-12-28T04:32:59;10.50;1.00
14031;DHT22;7090;49.436;8.490;2023-12-28T04:35:25;10.40;1.00
14031;DHT22;7090;49.436;8.490;2023-12-28T04:37:50;10.40;1.00
14031;DHT22;7090;49.436;8.490;2023-12-28T04:40:16;10.40;1.00
14031;DHT22;7090;49.436;8.490;2023-12-28T04:42:43;10.40;1.00
14031;DHT22;7090;49.436;8.490;2023-12-28T04:45:08;10.40;1.00
14031;DHT22;7090;49.436;8.490;2023-12-28T04:47:35;10.40;1.00
14031;DHT22;7090;49.436;8.490;2023-12-28T04:50:01;10.40;1.00
14031;DHT22;7090;49.436;8.490;2023-12-28T04:52:28;10.40;1.00
14031;DHT22;7090;49.436;8.490;2023-12-28T04:54:53;10.40;1.00
14031;DHT22;7090;49.436;8.490;2023-12-28T04:57:19;10.40;1.00
14031;DHT22;7090;49.436;8.490;2023-12-28T04:59:45;10.40;18.50
14031;DHT22;7090;49.436;8.490;2023-12-28T05:02:10;10.30;99.90
14031;DHT22;7090;49.436;8.490;2023-12-28T05:04:38;10.30;99.90
14031;DHT22;7090;49.436;8.490;2023-12-28T05:07:04;10.30;99.90
14031;DHT22;7090;49.436;8.490;2023-12-28T05:09:30;10.20;99.90
14031;DHT22;7090;49.436;8.490;2023-12-28T05:11:56;10.20;99.90
14031;DHT22;7090;49.436;8.490;2023-12-28T05:14:22;10.20;99.90
14031;DHT22;7090;49.436;8.490;2023-12-28T05:16:47;10.10;99.90
14031;DHT22;7090;49.436;8.490;2023-12-28T05:19:13;10.10;99.90
14031;DHT22;7090;49.436;8.490;2023-12-28T05:21:39;10.00;99.90
14031;DHT22;7090;49.436;8.490;2023-12-28T05:24:05;10.00;99.90
14031;DHT22;7090;49.436;8.490;2023-12-28T05:26:31;9.90;99.90
14031;DHT22;7090;49.436;8.490;2023-12-28T05:28:56;9.90;99.90
14031;DHT22;7090;49.436;8.490;2023-12-28T05:31:22;9.90;99.90
14031;DHT22;7090;49.436;8.490;2023-12-28T05:33:47;9.90;99.90
14031;DHT22;7090;49.436;8.490;2023-12-28T05:36:13;9.90;99.90
14031;DHT22;7090;49.436;8.490;2023-12-28T05:38:39;9.90;99.90
14031;DHT22;7090;49.436;8.490;2023-12-28T05:41:04;9.90;99.90
14031;DHT22;7090;49.436;8.490;2023-12-28T05:43:30;9.90;99.90
14031;DHT22;7090;49.436;8.490;2023-12-28T05:45:55;9.90;99.90
14031;DHT22;7090;49.436;8.490;2023-12-28T05:48:21;9.90;99.90
14031;DHT22;7090;49.436;8.490;2023-12-28T05:50:47;9.90;99.90
14031;DHT22;7090;49.436;8.490;2023-12-28T05:53:12;9.90;99.90
14031;DHT22;7090;49.436;8.490;2023-12-28T05:55:42;9.90;99.90
14031;DHT22;7090;49.436;8.490;2023-12-28T05:58:08;9.90;99.90
14031;DHT22;7090;49.436;8.490;2023-12-28T06:00:34;9.90;99.90
14031;DHT22;7090;49.436;8.490;2023-12-28T06:03:01;9.90;99.90
14031;DHT22;7090;49.436;8.490;2023-12-28T06:05:27;9.90;99.90
14031;DHT22;7090;49.436;8.490;2023-12-28T06:07:53;9.90;99.90
14031;DHT22;7090;49.436;8.490;2023-12-28T06:10:18;9.90;99.90
14031;DHT22;7090;49.436;8.490;2023-12-28T06:12:44;10.00;99.90
14031;DHT22;7090;49.436;8.490;2023-12-28T06:15:09;10.00;99.90
14031;DHT22;7090;49.436;8.490;2023-12-28T06:17:35;10.00;99.90
14031;DHT22;7090;49.436;8.490;2023-12-28T06:20:01;10.00;99.90
14031;DHT22;7090;49.436;8.490;2023-12-28T06:22:27;10.10;99.90
14031;DHT22;7090;49.436;8.490;2023-12-28T06:24:56;10.10;99.90
14031;DHT22;7090;49.436;8.490;2023-12-28T06:27:22;10.10;99.90
14031;DHT22;7090;49.436;8.490;2023-12-28T06:29:49;10.10;99.90
14031;DHT22;7090;49.436;8.490;2023-12-28T06:32:14;10.10;99.90
14031;DHT22;7090;49.436;8.490;2023-12-28T06:34:40;10.00;99.90
14031;DHT22;7090;49.436;8.490;2023-12-28T06:37:05;10.10;99.90
14031;DHT22;7090;49.436;8.490;2023-12-28T06:39:31;10.10;99.90
14031;DHT22;7090;49.436;8.490;2023-12-28T06:41:56;10.10;99.90
14031;DHT22;7090;49.436;8.490;2023-12-28T06:44:22;10.10;99.90
14031;DHT22;7090;49.436;8.490;2023-12-28T06:46:48;10.10;99.90
14031;DHT22;7090;49.436;8.490;2023-12-28T06:49:13;10.10;99.90
14031;DHT22;7090;49.436;8.490;2023-12-28T06:51:39;10.10;99.90
14031;DHT22;7090;49.436;8.490;2023-12-28T06:54:04;10.10;99.90
14031;DHT22;7090;49.436;8.490;2023-12-28T06:56:30;10.00;99.90
14031;DHT22;7090;49.436;8.490;2023-12-28T06:58:56;10.00;99.90
14031;DHT22;7090;49.436;8.490;2023-12-28T07:01:21;10.00;99.90
14031;DHT22;7090;49.436;8.490;2023-12-28T07:03:47;10.00;99.90
14031;DHT22;7090;49.436;8.490;2023-12-28T07:06:14;10.00;99.90
14031;DHT22;7090;49.436;8.490;2023-12-28T07:08:39;10.00;99.90
14031;DHT22;7090;49.436;8.490;2023-12-28T07:11:05;10.00;99.90
14031;DHT22;7090;49.436;8.490;2023-12-28T07:13:30;10.00;99.90
14031;DHT22;7090;49.436;8.490;2023-12-28T07:15:56;10.00;99.90
14031;DHT22;7090;49.436;8.490;2023-12-28T07:18:21;10.00;99.90
14031;DHT22;7090;49.436;8.490;2023-12-28T07:20:47;10.00;99.90
14031;DHT22;7090;49.436;8.490;2023-12-28T07:23:14;10.10;99.90
14031;DHT22;7090;49.436;8.490;2023-12-28T07:25:40;10.10;99.90
14031;DHT22;7090;49.436;8.490;2023-12-28T07:28:05;10.10;99.90
14031;DHT22;7090;49.436;8.490;2023-12-28T07:30:31;10.10;99.90
14031;DHT22;7090;49.436;8.490;2023-12-28T07:32:56;10.10;99.90
14031;DHT22;7090;49.436;8.490;2023-12-28T07:35:23;10.20;99.90
14031;DHT22;7090;49.436;8.490;2023-12-28T07:37:48;10.10;99.90
14031;DHT22;7090;49.436;8.490;2023-12-28T07:40:15;10.10;99.90
14031;DHT22;7090;49.436;8.490;2023-12-28T07:42:40;10.10;99.90
14031;DHT22;7090;49.436;8.490;2023-12-28T07:45:06;10.10;99.90
14031;DHT22;7090;49.436;8.490;2023-12-28T07:47:32;10.10;99.90
14031;DHT22;7090;49.436;8.490;2023-12-28T07:49:58;10.10;99.90
14031;DHT22;7090;49.436;8.490;2023-12-28T07:52:24;10.10;99.90
14031;DHT22;7090;49.436;8.490;2023-12-28T07:54:50;10.10;99.90
14031;DHT22;7090;49.436;8.490;2023-12-28T07:57:15;10.10;99.90
14031;DHT22;7090;49.436;8.490;2023-12-28T07:59:41;10.20;99.90
14031;DHT22;7090;49.436;8.490;2023-12-28T08:02:06;10.20;99.90
14031;DHT22;7090;49.436;8.490;2023-12-28T08:04:34;10.20;99.90
14031;DHT22;7090;49.436;8.490;2023-12-28T08:07:00;10.20;99.90
14031;DHT22;7090;49.436;8.490;2023-12-28T08:09:26;10.20;99.90
14031;DHT22;7090;49.436;8.490;2023-12-28T08:11:52;10.20;99.90
14031;DHT22;7090;49.436;8.490;2023-12-28T08:14:17;10.20;99.90
14031;DHT22;7090;49.436;8.490;2023-12-28T08:16:43;10.20;99.90
14031;DHT22;7090;49.436;8.490;2023-12-28T08:19:09;10.20;99.90
14031;DHT22;7090;49.436;8.490;2023-12-28T08:21:34;10.20;99.90
14031;DHT22;7090;49.436;8.490;2023-12-28T08:24:00;10.20;99.90
14031;DHT22;7090;49.436;8.490;2023-12-28T08:26:25;10.20;99.90
14031;DHT22;7090;49.436;8.490;2023-12-28T08:28:51;10.20;99.90
14031;DHT22;7090;49.436;8.490;2023-12-28T08:31:18;10.30;99.90
14031;DHT22;7090;49.436;8.490;2023-12-28T08:33:43;10.30;99.90
14031;DHT22;7090;49.436;8.490;2023-12-28T08:36:09;10.30;99.90
14031;DHT22;7090;49.436;8.490;2023-12-28T08:38:35;10.30;99.90
14031;DHT22;7090;49.436;8.490;2023-12-28T08:41:00;10.30;99.90
14031;DHT22;7090;49.436;8.490;2023-12-28T08:43:29;10.30;99.90
14031;DHT22;7090;49.436;8.490;2023-12-28T08:45:54;10.30;99.90
14031;DHT22;7090;49.436;8.490;2023-12-28T08:48:20;10.30;99.90
14031;DHT22;7090;49.436;8.490;2023-12-28T08:50:46;10.30;99.90
14031;DHT22;7090;49.436;8.490;2023-12-28T08:53:12;10.40;99.90
14031;DHT22;7090;49.436;8.490;2023-12-28T08:55:37;10.40;99.90
14031;DHT22;7090;49.436;8.490;2023-12-28T08:58:03;10.40;99.90
14031;DHT22;7090;49.436;8.490;2023-12-28T09:00:28;10.40;99.90
14031;DHT22;7090;49.436;8.490;2023-12-28T09:02:54;10.40;99.90
14031;DHT22;7090;49.436;8.490;2023-12-28T09:05:20;10.50;99.90
14031;DHT22;7090;49.436;8.490;2023-12-28T09:07:45;10.50;99.90
14031;DHT22;7090;49.436;8.490;2023-12-28T09:10:11;10.50;99.90
14031;DHT22;7090;49.436;8.490;2023-12-28T09:12:37;10.50;99.90
14031;DHT22;7090;49.436;8.490;2023-12-28T09:15:07;10.50;99.90
14031;DHT22;7090;49.436;8.490;2023-12-28T09:17:33;10.50;99.90
14031;DHT22;7090;49.436;8.490;2023-12-28T09:19:58;10.50;99.90
14031;DHT22;7090;49.436;8.490;2023-12-28T09:22:24;10.50;99.90
14031;DHT22;7090;49.436;8.490;2023-12-28T09:24:50;10.50;99.90
14031;DHT22;7090;49.436;8.490;2023-12-28T09:27:16;10.50;99.90
14031;DHT22;7090;49.436;8.490;2023-12-28T09:29:42;10.50;99.90
14031;DHT22;7090;49.436;8.490;2023-12-28T09:32:07;10.50;99.90
14031;DHT22;7090;49.436;8.490;2023-12-28T09:34:33;10.60;99.90
14031;DHT22;7090;49.436;8.490;2023-12-28T09:36:58;10.60;99.90
14031;DHT22;7090;49.436;8.490;2023-12-28T09:39:24;10.60;99.90
14031;DHT22;7090;49.436;8.490;2023-12-28T09:41:59;10.50;99.90
14031;DHT22;7090;49.436;8.490;2023-12-28T09:44:26;10.60;99.90
14031;DHT22;7090;49.436;8.490;2023-12-28T09:46:52;10.60;99.90
14031;DHT22;7090;49.436;8.490;2023-12-28T09:49:20;10.50;99.90
14031;DHT22;7090;49.436;8.490;2023-12-28T09:51:47;10.50;99.90
14031;DHT22;7090;49.436;8.490;2023-12-28T09:54:13;10.50;99.90
14031;DHT22;7090;49.436;8.490;2023-12-28T09:56:40;10.40;99.90
14031;DHT22;7090;49.436;8.490;2023-12-28T09:59:06;10.40;99.90
14031;DHT22;7090;49.436;8.490;2023-12-28T10:01:34;10.30;99.90
14031;DHT22;7090;49.436;8.490;2023-12-28T10:04:00;10.40;99.90
14031;DHT22;7090;49.436;8.490;2023-12-28T10:06:28;10.30;99.90
14031;DHT22;7090;49.436;8.490;2023-12-28T10:08:54;10.30;99.90
14031;DHT22;7090;49.436;8.490;2023-12-28T10:11:21;10.40;99.90
14031;DHT22;7090;49.436;8.490;2023-12-28T10:13:48;10.40;99.90
14031;DHT22;7090;49.436;8.490;2023-12-28T10:16:15;10.30;99.90
14031;DHT22;7090;49.436;8.490;2023-12-28T10:18:42;10.40;99.90
14031;DHT22;7090;49.436;8.490;2023-12-28T10:21:09;10.40;99.90
14031;DHT22;7090;49.436;8.490;2023-12-28T10:23:35;10.50;99.90
14031;DHT22;7090;49.436;8.490;2023-12-28T10:26:00;10.60;99.90
14031;DHT22;7090;49.436;8.490;2023-12-28T10:28:27;10.60;99.90
14031;DHT22;7090;49.436;8.490;2023-12-28T10:30:56;10.60;99.90
14031;DHT22;7090;49.436;8.490;2023-12-28T10:33:22;10.60;99.90
14031;DHT22;7090;49.436;8.490;2023-12-28T10:35:52;10.70;99.90
14031;DHT22;7090;49.436;8.490;2023-12-28T10:38:19;10.70;99.90
14031;DHT22;7090;49.436;8.490;2023-12-28T10:40:46;10.70;99.90
14031;DHT22;7090;49.436;8.490;2023-12-28T10:43:15;10.70;99.90
14031;DHT22;7090;49.436;8.490;2023-12-28T10:45:42;10.70;99.90
14031;DHT22;7090;49.436;8.490;2023-12-28T10:48:12;10.70;99.90
14031;DHT22;7090;49.436;8.490;2023-12-28T10:50:49;10.70;99.90
14031;DHT22;7090;49.436;8.490;2023-12-28T10:53:45;10.70;99.90
14031;DHT22;7090;49.436;8.490;2023-12-28T11:01:43;10.70;99.90
14031;DHT22;7090;49.436;8.490;2023-12-28T11:04:21;10.80;99.90
14031;DHT22;7090;49.436;8.490;2023-12-28T11:06:49;10.80;99.90
14031;DHT22;7090;49.436;8.490;2023-12-28T11:09:15;10.80;99.90
14031;DHT22;7090;49.436;8.490;2023-12-28T11:11:43;10.80;99.90
14031;DHT22;7090;49.436;8.490;2023-12-28T11:14:09;10.90;99.90
14031;DHT22;7090;49.436;8.490;2023-12-28T11:16:37;10.60;99.90
14031;DHT22;7090;49.436;8.490;2023-12-28T11:19:04;10.50;99.90
14031;DHT22;7090;49.436;8.490;2023-12-28T11:21:32;10.50;99.90
14031;DHT22;7090;49.436;8.490;2023-12-28T11:23:58;10.40;99.90
14031;DHT22;7090;49.436;8.490;2023-12-28T11:26:24;10.40;99.90
14031;DHT22;7090;49.436;8.490;2023-12-28T11:28:50;10.40;99.90
14031;DHT22;7090;49.436;8.490;2023-12-28T11:31:26;10.40;99.90
14031;DHT22;7090;49.436;8.490;2023-12-28T11:33:52;10.30;99.90
14031;DHT22;7090;49.436;8.490;2023-12-28T11:36:48;10.40;99.90
14031;DHT22;7090;49.436;8.490;2023-12-28T11:39:30;10.30;99.90
14031;DHT22;7090;49.436;8.490;2023-12-28T11:42:02;10.30;99.90
14031;DHT22;7090;49.436;8.490;2023-12-28T11:44:38;10.30;99.90
14031;DHT22;7090;49.436;8.490;2023-12-28T11:47:23;10.30;99.90
14031;DHT22;7090;49.436;8.490;2023-12-28T11:49:50;10.20;99.90
14031;DHT22;7090;49.436;8.490;2023-12-28T11:52:30;10.20;99.90
14031;DHT22;7090;49.436;8.490;2023-12-28T11:54:56;10.40;99.90
14031;DHT22;7090;49.436;8.490;2023-12-28T11:57:22;10.20;99.90
14031;DHT22;7090;49.436;8.490;2023-12-28T11:59:53;10.10;99.90
14031;DHT22;7090;49.436;8.490;2023-12-28T12:02:20;10.00;99.90
14031;DHT22;7090;49.436;8.490;2023-12-28T12:04:45;9.90;99.90
14031;DHT22;7090;49.436;8.490;2023-12-28T12:07:11;9.90;99.90
14031;DHT22;7090;49.436;8.490;2023-12-28T12:09:36;9.70;99.90
14031;DHT22;7090;49.436;8.490;2023-12-28T12:12:03;9.60;99.90
14031;DHT22;7090;49.436;8.490;2023-12-28T12:14:29;9.50;99.90
14031;DHT22;7090;49.436;8.490;2023-12-28T12:16:56;9.40;99.90
14031;DHT22;7090;49.436;8.490;2023-12-28T12:19:25;9.30;99.90
14031;DHT22;7090;49.436;8.490;2023-12-28T12:21:57;9.20;99.90
14031;DHT22;7090;49.436;8.490;2023-12-28T12:24:23;9.20;99.90
14031;DHT22;7090;49.436;8.490;2023-12-28T12:26:52;9.10;99.90
14031;DHT22;7090;49.436;8.490;2023-12-28T12:29:18;9.10;99.90
14031;DHT22;7090;49.436;8.490;2023-12-28T12:31:46;9.10;99.90
14031;DHT22;7090;49.436;8.490;2023-12-28T12:34:15;9.10;99.90
14031;DHT22;7090;49.436;8.490;2023-12-28T12:36:41;9.10;99.90
14031;DHT22;7090;49.436;8.490;2023-12-28T12:39:07;9.10;99.90
14031;DHT22;7090;49.436;8.490;2023-12-28T12:41:35;9.10;99.90
14031;DHT22;7090;49.436;8.490;2023-12-28T12:44:00;9.10;99.90
14031;DHT22;7090;49.436;8.490;2023-12-28T12:46:27;9.10;99.90
14031;DHT22;7090;49.436;8.490;2023-12-28T12:49:00;9.10;99.90
14031;DHT22;7090;49.436;8.490;2023-12-28T12:51:27;9.10;99.90
14031;DHT22;7090;49.436;8.490;2023-12-28T12:54:00;9.10;99.90
14031;DHT22;7090;49.436;8.490;2023-12-28T12:56:31;9.00;99.90
14031;DHT22;7090;49.436;8.490;2023-12-28T12:58:57;9.00;99.90
14031;DHT22;7090;49.436;8.490;2023-12-28T13:01:24;9.00;99.90
14031;DHT22;7090;49.436;8.490;2023-12-28T13:03:52;9.00;99.90
14031;DHT22;7090;49.436;8.490;2023-12-28T13:06:18;9.00;99.90
14031;DHT22;7090;49.436;8.490;2023-12-28T13:08:48;9.10;99.90
14031;DHT22;7090;49.436;8.490;2023-12-28T13:11:14;9.10;99.90
14031;DHT22;7090;49.436;8.490;2023-12-28T13:13:41;9.10;99.90
14031;DHT22;7090;49.436;8.490;2023-12-28T13:16:06;9.10;99.90
14031;DHT22;7090;49.436;8.490;2023-12-28T13:18:32;9.20;99.90
14031;DHT22;7090;49.436;8.490;2023-12-28T13:21:00;9.20;99.90
14031;DHT22;7090;49.436;8.490;2023-12-28T13:23:26;9.20;99.90
14031;DHT22;7090;49.436;8.490;2023-12-28T13:25:51;9.20;99.90
14031;DHT22;7090;49.436;8.490;2023-12-28T13:28:17;9.30;99.90
14031;DHT22;7090;49.436;8.490;2023-12-28T13:30:43;9.30;99.90
14031;DHT22;7090;49.436;8.490;2023-12-28T13:33:09;9.20;99.90
14031;DHT22;7090;49.436;8.490;2023-12-28T13:35:34;9.30;99.90
14031;DHT22;7090;49.436;8.490;2023-12-28T13:38:00;9.30;99.90
14031;DHT22;7090;49.436;8.490;2023-12-28T13:40:28;9.30;99.90
14031;DHT22;7090;49.436;8.490;2023-12-28T13:42:55;9.40;99.90
14031;DHT22;7090;49.436;8.490;2023-12-28T13:45:21;9.40;99.90
14031;DHT22;7090;49.436;8.490;2023-12-28T13:47:46;9.50;99.90
14031;DHT22;7090;49.436;8.490;2023-12-28T13:50:12;9.50;99.90
14031;DHT22;7090;49.436;8.490;2023-12-28T13:52:38;9.50;99.90
14031;DHT22;7090;49.436;8.490;2023-12-28T13:55:03;9.50;99.90
14031;DHT22;7090;49.436;8.490;2023-12-28T13:57:29;9.60;99.90
14031;DHT22;7090;49.436;8.490;2023-12-28T13:59:54;9.60;99.90
14031;DHT22;7090;49.436;8.490;2023-12-28T14:02:25;9.70;99.90
14031;DHT22;7090;49.436;8.490;2023-12-28T14:04:51;9.70;99.90
14031;DHT22;7090;49.436;8.490;2023-12-28T14:07:17;9.70;99.90
14031;DHT22;7090;49.436;8.490;2023-12-28T14:09:42;9.80;99.90
14031;DHT22;7090;49.436;8.490;2023-12-28T14:12:08;9.80;99.90
14031;DHT22;7090;49.436;8.490;2023-12-28T14:14:33;9.80;99.90
14031;DHT22;7090;49.436;8.490;2023-12-28T14:16:59;9.80;99.90
14031;DHT22;7090;49.436;8.490;2023-12-28T14:19:25;9.80;99.90
14031;DHT22;7090;49.436;8.490;2023-12-28T14:21:50;9.80;99.90
14031;DHT22;7090;49.436;8.490;2023-12-28T14:24:16;9.90;99.90
14031;DHT22;7090;49.436;8.490;2023-12-28T14:26:42;9.90;99.90
14031;DHT22;7090;49.436;8.490;2023-12-28T14:29:09;9.90;99.90
14031;DHT22;7090;49.436;8.490;2023-12-28T14:31:36;9.90;99.90
14031;DHT22;7090;49.436;8.490;2023-12-28T14:34:01;9.90;99.90
14031;DHT22;7090;49.436;8.490;2023-12-28T14:36:35;9.90;99.90
14031;DHT22;7090;49.436;8.490;2023-12-28T14:39:04;9.90;99.90
14031;DHT22;7090;49.436;8.490;2023-12-28T14:41:37;10.00;99.90
14031;DHT22;7090;49.436;8.490;2023-12-28T14:44:03;10.00;99.90
14031;DHT22;7090;49.436;8.490;2023-12-28T14:46:30;10.00;99.90
14031;DHT22;7090;49.436;8.490;2023-12-28T14:48:56;10.00;99.90
14031;DHT22;7090;49.436;8.490;2023-12-28T14:51:22;10.10;99.90
14031;DHT22;7090;49.436;8.490;2023-12-28T14:53:48;10.00;99.90
14031;DHT22;7090;49.436;8.490;2023-12-28T14:56:13;10.00;99.90
14031;DHT22;7090;49.436;8.490;2023-12-28T14:58:39;10.00;99.90
14031;DHT22;7090;49.436;8.490;2023-12-28T15:01:06;10.10;99.90
14031;DHT22;7090;49.436;8.490;2023-12-28T15:03:32;10.00;99.90
14031;DHT22;7090;49.436;8.490;2023-12-28T15:05:57;10.00;99.90
14031;DHT22;7090;49.436;8.490;2023-12-28T15:08:26;10.00;99.90
14031;DHT22;7090;49.436;8.490;2023-12-28T15:10:52;10.10;99.90
14031;DHT22;7090;49.436;8.490;2023-12-28T15:13:18;10.10;99.90
14031;DHT22;7090;49.436;8.490;2023-12-28T15:15:44;10.10;99.90
14031;DHT22;7090;49.436;8.490;2023-12-28T15:18:10;10.10;99.90
14031;DHT22;7090;49.436;8.490;2023-12-28T15:20:36;10.20;99.90
14031;DHT22;7090;49.436;8.490;2023-12-28T15:23:02;10.10;99.90
14031;DHT22;7090;49.436;8.490;2023-12-28T15:25:28;10.10;99.90
14031;DHT22;7090;49.436;8.490;2023-12-28T15:27:54;10.10;99.90
14031;DHT22;7090;49.436;8.490;2023-12-28T15:30:19;10.00;99.90
14031;DHT22;7090;49.436;8.490;2023-12-28T15:32:45;10.00;99.90
14031;DHT22;7090;49.436;8.490;2023-12-28T15:35:14;10.00;99.90
14031;DHT22;7090;49.436;8.490;2023-12-28T15:37:41;9.90;99.90
14031;DHT22;7090;49.436;8.490;2023-12-28T15:40:07;9.90;99.90
14031;DHT22;7090;49.436;8.490;2023-12-28T15:42:32;9.80;99.90
14031;DHT22;7090;49.436;8.490;2023-12-28T15:44:58;9.90;99.90
14031;DHT22;7090;49.436;8.490;2023-12-28T15:47:23;9.80;99.90
14031;DHT22;7090;49.436;8.490;2023-12-28T15:49:49;9.80;99.90
14031;DHT22;7090;49.436;8.490;2023-12-28T15:52:15;9.80;99.90
14031;DHT22;7090;49.436;8.490;2023-12-28T15:54:40;9.80;99.90
14031;DHT22;7090;49.436;8.490;2023-12-28T15:57:06;9.90;99.90
14031;DHT22;7090;49.436;8.490;2023-12-28T15:59:31;9.80;99.90
14031;DHT22;7090;49.436;8.490;2023-12-28T16:01:57;9.70;99.90